createdAt,value
2018-10-05T00:00:45.051Z,99.90
2018-10-05T00:03:13.491Z,99.90
2018-10-05T00:05:41.926Z,99.90
2018-10-05T00:08:10.385Z,99.90
2018-10-05T00:10:38.785Z,99.90
2018-10-05T00:13:07.281Z,99.90
2018-10-05T00:15:35.821Z,99.90
2018-10-05T00:18:04.316Z,99.90
2018-10-05T00:20:32.821Z,99.90
2018-10-05T00:23:01.237Z,99.90
2018-10-05T00:25:29.669Z,99.90
2018-10-05T00:27:58.119Z,99.90
2018-10-05T00:30:26.580Z,99.90
2018-10-05T00:32:55.000Z,99.90
2018-10-05T00:35:23.459Z,99.90
2018-10-05T00:37:52.031Z,99.90
2018-10-05T00:40:20.424Z,99.90
2018-10-05T00:42:48.845Z,99.90
2018-10-05T00:45:17.271Z,99.90
2018-10-05T00:47:45.745Z,99.90
2018-10-05T00:50:14.183Z,99.90
2018-10-05T00:52:42.636Z,99.90
2018-10-05T00:55:11.074Z,99.90
2018-10-05T00:57:39.540Z,99.90
2018-10-05T01:00:08.084Z,99.90
2018-10-05T01:02:36.576Z,99.90
2018-10-05T01:05:05.079Z,99.90
2018-10-05T01:07:33.491Z,99.90
2018-10-05T01:10:01.998Z,99.90
2018-10-05T01:12:30.615Z,99.90
2018-10-05T01:14:59.121Z,99.90
2018-10-05T01:17:27.568Z,99.90
2018-10-05T01:19:56.108Z,99.90
2018-10-05T01:22:24.675Z,99.90
2018-10-05T01:24:53.360Z,99.90
2018-10-05T01:27:21.892Z,99.90
2018-10-05T01:29:50.876Z,99.90
2018-10-05T01:32:19.624Z,99.90
2018-10-05T01:34:48.565Z,99.90
2018-10-05T01:37:18.207Z,99.90
2018-10-05T01:39:47.047Z,99.90
2018-10-05T01:42:16.123Z,99.90
2018-10-05T01:44:45.184Z,99.90
2018-10-05T01:47:14.155Z,99.90
2018-10-05T01:49:43.488Z,99.90
2018-10-05T01:52:12.504Z,99.90
2018-10-05T01:54:41.498Z,99.90
2018-10-05T01:57:10.016Z,99.90
2018-10-05T01:59:39.057Z,99.90
2018-10-05T02:02:07.670Z,99.90
2018-10-05T02:04:36.931Z,99.90
2018-10-05T02:07:06.042Z,99.90
2018-10-05T02:09:34.927Z,99.90
2018-10-05T02:12:03.979Z,99.90
2018-10-05T02:14:33.501Z,99.90
2018-10-05T02:17:02.552Z,99.90
2018-10-05T02:19:31.373Z,99.90
2018-10-05T02:22:00.495Z,99.90
2018-10-05T02:24:29.434Z,99.90
2018-10-05T02:26:58.313Z,99.90
2018-10-05T02:29:27.364Z,99.90
2018-10-05T02:31:56.933Z,99.90
2018-10-05T02:34:25.862Z,99.90
2018-10-05T02:36:54.672Z,99.90
2018-10-05T02:39:23.584Z,99.90
2018-10-05T02:41:52.538Z,99.90
2018-10-05T02:44:21.193Z,99.90
2018-10-05T02:46:49.879Z,99.90
2018-10-05T02:49:18.685Z,99.90
2018-10-05T02:51:47.520Z,99.90
2018-10-05T02:54:16.377Z,99.90
2018-10-05T02:56:45.817Z,99.90
2018-10-05T02:59:15.005Z,99.90
2018-10-05T03:01:54.820Z,99.90
2018-10-05T03:04:23.808Z,99.90
2018-10-05T03:06:52.825Z,99.90
2018-10-05T03:09:22.315Z,99.90
2018-10-05T03:11:51.217Z,99.90
2018-10-05T03:14:19.967Z,99.90
2018-10-05T03:16:48.862Z,99.90
2018-10-05T03:19:17.467Z,99.90
2018-10-05T03:21:46.246Z,99.90
2018-10-05T03:24:14.908Z,99.90
2018-10-05T03:26:43.455Z,99.90
2018-10-05T03:29:11.946Z,99.90
2018-10-05T03:31:40.883Z,99.90
2018-10-05T03:34:09.529Z,99.90
2018-10-05T03:36:38.384Z,99.90
2018-10-05T03:39:07.474Z,99.90
2018-10-05T03:41:36.724Z,99.90
2018-10-05T03:44:05.678Z,99.90
2018-10-05T03:46:35.097Z,99.90
2018-10-05T03:49:04.162Z,99.90
2018-10-05T03:51:33.196Z,99.90
2018-10-05T03:54:02.299Z,99.90
2018-10-05T03:56:31.964Z,99.90
2018-10-05T03:59:00.542Z,99.90
2018-10-05T04:01:29.500Z,99.90
2018-10-05T04:03:58.358Z,99.90
2018-10-05T04:06:27.850Z,99.90
2018-10-05T04:08:56.726Z,99.90
2018-10-05T04:11:26.023Z,99.90
2018-10-05T04:13:55.202Z,99.90
2018-10-05T04:16:26.195Z,99.90
2018-10-05T04:18:55.735Z,99.90
2018-10-05T04:21:25.111Z,99.90
2018-10-05T04:23:54.286Z,99.90
2018-10-05T04:26:23.450Z,99.90
2018-10-05T04:28:52.220Z,99.90
2018-10-05T04:31:21.236Z,99.90
2018-10-05T04:33:49.962Z,99.90
2018-10-05T04:36:18.935Z,99.90
2018-10-05T04:38:48.059Z,99.90
2018-10-05T04:41:16.953Z,99.90
2018-10-05T04:43:45.680Z,99.90
2018-10-05T04:46:14.564Z,99.90
2018-10-05T04:48:43.273Z,99.90
2018-10-05T04:51:12.411Z,99.90
2018-10-05T04:53:41.249Z,99.90
2018-10-05T04:56:10.080Z,99.90
2018-10-05T04:58:39.129Z,99.90
2018-10-05T05:01:08.175Z,99.90
2018-10-05T05:03:37.535Z,99.90
2018-10-05T05:06:06.507Z,99.90
2018-10-05T05:08:35.841Z,99.90
2018-10-05T05:11:04.531Z,99.90
2018-10-05T05:13:33.733Z,99.90
2018-10-05T05:16:02.485Z,99.90
2018-10-05T05:18:31.063Z,99.90
2018-10-05T05:20:59.669Z,99.90
2018-10-05T05:23:28.356Z,99.90
2018-10-05T05:25:57.471Z,99.90
2018-10-05T05:28:26.092Z,99.90
2018-10-05T05:30:54.940Z,99.90
2018-10-05T05:33:24.224Z,99.90
2018-10-05T05:35:53.502Z,99.90
2018-10-05T05:38:22.202Z,99.90
2018-10-05T05:40:51.766Z,99.90
2018-10-05T05:43:20.372Z,99.90
2018-10-05T05:45:49.387Z,99.90
2018-10-05T05:48:18.559Z,99.90
2018-10-05T05:50:47.336Z,99.90
2018-10-05T05:53:16.777Z,99.90
2018-10-05T05:55:46.803Z,99.90
2018-10-05T05:58:15.520Z,99.90
2018-10-05T06:00:44.582Z,99.90
2018-10-05T06:03:13.145Z,99.90
2018-10-05T06:05:41.743Z,99.90
2018-10-05T06:08:10.305Z,99.90
2018-10-05T06:10:38.710Z,99.90
2018-10-05T06:13:07.305Z,99.90
2018-10-05T06:15:35.866Z,99.90
2018-10-05T06:18:05.017Z,99.90
2018-10-05T06:20:34.116Z,99.90
2018-10-05T06:23:03.183Z,99.90
2018-10-05T06:25:32.049Z,99.90
2018-10-05T06:28:01.068Z,99.90
2018-10-05T06:30:29.978Z,99.90
2018-10-05T06:32:59.089Z,99.90
2018-10-05T06:35:28.354Z,99.90
2018-10-05T06:37:57.374Z,99.90
2018-10-05T06:40:26.972Z,99.90
2018-10-05T06:42:55.879Z,99.90
2018-10-05T06:45:24.789Z,99.90
2018-10-05T06:47:53.824Z,99.90
2018-10-05T06:50:22.413Z,99.90
2018-10-05T06:52:51.160Z,99.90
2018-10-05T06:55:19.727Z,99.90
2018-10-05T06:57:48.429Z,99.90
2018-10-05T07:00:17.196Z,99.90
2018-10-05T07:02:45.953Z,99.90
2018-10-05T07:05:14.513Z,95.90
2018-10-05T07:07:43.165Z,89.60
2018-10-05T07:10:11.571Z,75.80
2018-10-05T07:12:40.081Z,66.50
2018-10-05T07:15:08.546Z,61.60
2018-10-05T07:17:37.005Z,58.00
2018-10-05T07:20:05.496Z,55.40
2018-10-05T07:22:33.989Z,53.80
2018-10-05T07:25:02.354Z,52.20
2018-10-05T07:27:31.132Z,50.90
2018-10-05T07:30:00.386Z,49.00
2018-10-05T07:32:29.244Z,47.20
2018-10-05T07:34:57.848Z,46.00
2018-10-05T07:37:26.512Z,45.30
2018-10-05T07:39:54.970Z,44.70
2018-10-05T07:42:23.596Z,43.50
2018-10-05T07:44:52.031Z,41.90
2018-10-05T07:47:20.707Z,41.60
2018-10-05T07:49:49.565Z,42.00
2018-10-05T07:52:18.424Z,41.80
2018-10-05T07:54:47.625Z,41.70
2018-10-05T07:57:17.150Z,41.70
2018-10-05T07:59:46.105Z,40.60
2018-10-05T08:02:14.874Z,40.80
2018-10-05T08:04:43.808Z,41.10
2018-10-05T08:07:13.093Z,40.70
2018-10-05T08:09:42.222Z,40.60
2018-10-05T08:12:12.604Z,38.80
2018-10-05T08:14:41.675Z,37.90
2018-10-05T08:17:10.806Z,37.30
2018-10-05T08:19:40.117Z,37.40
2018-10-05T08:22:08.931Z,37.80
2018-10-05T08:24:37.661Z,37.40
2018-10-05T08:27:07.361Z,36.50
2018-10-05T08:29:36.699Z,36.00
2018-10-05T08:32:06.033Z,35.20
2018-10-05T08:34:35.426Z,34.20
2018-10-05T08:37:03.905Z,33.80
2018-10-05T08:39:32.877Z,33.60
2018-10-05T08:42:01.809Z,32.90
2018-10-05T08:44:31.049Z,32.70
2018-10-05T08:46:59.960Z,32.90
2018-10-05T08:49:28.720Z,32.20
2018-10-05T08:51:57.553Z,32.20
2018-10-05T08:54:26.285Z,32.30
2018-10-05T08:56:55.601Z,32.40
2018-10-05T08:59:24.766Z,32.50
2018-10-05T09:01:53.713Z,32.00
2018-10-05T09:04:22.326Z,32.60
2018-10-05T09:06:51.452Z,32.20
2018-10-05T09:09:20.386Z,32.80
2018-10-05T09:11:49.695Z,32.60
2018-10-05T09:14:18.987Z,32.20
2018-10-05T09:16:47.961Z,32.20
2018-10-05T09:19:16.564Z,32.30
2018-10-05T09:21:45.092Z,31.50
2018-10-05T09:24:13.544Z,31.60
2018-10-05T09:26:42.060Z,31.80
2018-10-05T09:29:10.925Z,31.90
2018-10-05T09:31:39.643Z,32.00
2018-10-05T09:34:08.434Z,31.70
2018-10-05T09:36:37.611Z,31.20
2018-10-05T09:39:07.917Z,31.30
2018-10-05T09:41:37.028Z,31.40
2018-10-05T09:44:06.118Z,30.80
2018-10-05T09:46:35.295Z,30.50
2018-10-05T09:49:04.254Z,30.40
2018-10-05T09:51:33.224Z,30.40
2018-10-05T09:54:02.224Z,30.30
2018-10-05T09:56:31.398Z,30.90
2018-10-05T09:59:00.644Z,31.50
2018-10-05T10:01:34.408Z,31.20
2018-10-05T10:04:02.949Z,31.00
2018-10-05T10:06:32.038Z,30.50
2018-10-05T10:09:00.876Z,30.70
2018-10-05T10:11:29.681Z,30.90
2018-10-05T10:13:58.633Z,30.90
2018-10-05T10:16:27.522Z,30.20
2018-10-05T10:18:56.588Z,30.40
2018-10-05T10:21:25.674Z,30.20
2018-10-05T10:23:55.337Z,30.60
2018-10-05T10:26:24.288Z,31.30
2018-10-05T10:28:53.595Z,31.00
2018-10-05T10:31:22.906Z,31.30
2018-10-05T10:33:51.730Z,31.30
2018-10-05T10:36:23.221Z,31.80
2018-10-05T10:38:52.558Z,32.50
2018-10-05T10:41:21.485Z,33.40
2018-10-05T10:43:50.156Z,34.50
2018-10-05T10:46:18.814Z,35.60
2018-10-05T10:48:47.896Z,36.60
2018-10-05T10:51:17.088Z,37.60
2018-10-05T10:53:46.333Z,38.80
2018-10-05T10:56:15.074Z,39.40
2018-10-05T10:58:43.958Z,40.30
2018-10-05T11:01:14.446Z,40.30
2018-10-05T11:03:43.725Z,40.90
2018-10-05T11:06:12.432Z,41.10
2018-10-05T11:08:41.313Z,41.00
2018-10-05T11:11:10.463Z,41.30
2018-10-05T11:13:39.147Z,41.00
2018-10-05T11:16:08.468Z,40.40
2018-10-05T11:18:37.460Z,41.10
2018-10-05T11:21:06.928Z,41.50
2018-10-05T11:23:36.341Z,41.20
2018-10-05T11:26:05.987Z,41.10
2018-10-05T11:28:34.982Z,41.90
2018-10-05T11:31:04.221Z,41.40
2018-10-05T11:33:33.483Z,41.60
2018-10-05T11:36:02.757Z,41.70
2018-10-05T11:38:32.202Z,41.80
2018-10-05T11:41:01.714Z,41.70
2018-10-05T11:43:31.649Z,41.50
2018-10-05T11:46:01.408Z,41.60
2018-10-05T11:48:30.685Z,41.00
2018-10-05T11:50:59.862Z,41.10
2018-10-05T11:53:29.511Z,41.70
2018-10-05T11:55:59.411Z,42.00
2018-10-05T11:58:28.640Z,41.80
2018-10-05T12:00:57.900Z,42.30
2018-10-05T12:03:27.810Z,42.00
2018-10-05T12:05:57.065Z,41.90
2018-10-05T12:08:26.244Z,41.40
2018-10-05T12:10:55.425Z,41.20
2018-10-05T12:13:25.106Z,41.10
2018-10-05T12:15:54.338Z,41.30
2018-10-05T12:18:24.142Z,41.50
2018-10-05T12:20:53.514Z,41.70
2018-10-05T12:23:23.145Z,41.30
2018-10-05T12:25:52.431Z,41.30
2018-10-05T12:28:22.253Z,41.30
2018-10-05T12:30:52.223Z,41.20
2018-10-05T12:33:21.500Z,41.00
2018-10-05T12:35:50.836Z,40.70
2018-10-05T12:38:19.886Z,41.50
2018-10-05T12:40:49.202Z,41.60
2018-10-05T12:43:18.372Z,41.50
2018-10-05T12:45:48.012Z,41.50
2018-10-05T12:48:16.842Z,40.60
2018-10-05T12:50:45.822Z,41.10
2018-10-05T12:53:15.770Z,40.80
2018-10-05T12:55:45.190Z,41.10
2018-10-05T12:58:14.744Z,41.70
2018-10-05T13:00:43.990Z,41.30
2018-10-05T13:03:13.015Z,41.70
2018-10-05T13:05:41.970Z,41.50
2018-10-05T13:08:11.167Z,41.30
2018-10-05T13:10:40.559Z,41.50
2018-10-05T13:13:09.787Z,41.70
2018-10-05T13:15:39.046Z,41.60
2018-10-05T13:18:08.882Z,41.20
2018-10-05T13:20:38.621Z,41.60
2018-10-05T13:23:08.343Z,41.50
2018-10-05T13:25:37.581Z,41.10
2018-10-05T13:28:07.338Z,40.70
2018-10-05T13:30:36.665Z,41.10
2018-10-05T13:33:05.799Z,41.10
2018-10-05T13:35:34.862Z,41.10
2018-10-05T13:38:04.589Z,40.80
2018-10-05T13:40:33.609Z,40.60
2018-10-05T13:43:02.513Z,40.60
2018-10-05T13:45:31.318Z,40.20
2018-10-05T13:47:59.925Z,39.10
2018-10-05T13:50:28.587Z,39.40
2018-10-05T13:52:57.061Z,39.50
2018-10-05T13:55:25.643Z,40.20
2018-10-05T13:57:54.108Z,39.20
2018-10-05T14:00:22.804Z,39.30
2018-10-05T14:02:51.440Z,39.40
2018-10-05T14:05:19.876Z,39.60
2018-10-05T14:07:48.334Z,39.70
2018-10-05T14:10:16.940Z,39.40
2018-10-05T14:12:45.699Z,38.90
2018-10-05T14:15:14.447Z,39.30
2018-10-05T14:17:43.136Z,39.60
2018-10-05T14:20:12.042Z,39.90
2018-10-05T14:22:40.710Z,40.20
2018-10-05T14:25:09.263Z,40.00
2018-10-05T14:27:39.237Z,40.00
2018-10-05T14:30:07.812Z,39.80
2018-10-05T14:32:36.400Z,40.00
2018-10-05T14:35:05.440Z,39.80
2018-10-05T14:37:34.337Z,40.40
2018-10-05T14:40:03.202Z,40.50
2018-10-05T14:42:31.892Z,40.40
2018-10-05T14:45:00.402Z,40.10
2018-10-05T14:47:28.997Z,40.30
2018-10-05T14:49:57.670Z,39.80
2018-10-05T14:52:26.687Z,40.00
2018-10-05T14:54:56.176Z,40.00
2018-10-05T14:57:24.742Z,40.20
2018-10-05T14:59:53.989Z,40.00
2018-10-05T15:02:22.597Z,40.00
2018-10-05T15:04:51.258Z,40.20
2018-10-05T15:07:20.002Z,40.40
2018-10-05T15:09:48.482Z,40.70
2018-10-05T15:12:17.210Z,41.00
2018-10-05T15:14:45.716Z,41.00
2018-10-05T15:17:14.489Z,41.10
2018-10-05T15:19:43.012Z,41.20
2018-10-05T15:22:11.742Z,41.10
2018-10-05T15:24:40.349Z,40.90
2018-10-05T15:27:09.850Z,41.50
2018-10-05T15:29:39.026Z,41.50
2018-10-05T15:32:08.185Z,41.60
2018-10-05T15:34:36.778Z,41.60
2018-10-05T15:37:05.541Z,41.70
2018-10-05T15:39:34.135Z,41.90
2018-10-05T15:42:02.878Z,41.80
2018-10-05T15:44:31.464Z,42.00
2018-10-05T15:47:01.838Z,42.00
2018-10-05T15:49:31.248Z,42.40
2018-10-05T15:52:00.092Z,42.40
2018-10-05T15:54:28.754Z,42.50
2018-10-05T15:56:57.290Z,42.60
2018-10-05T15:59:26.518Z,42.90
2018-10-05T16:01:55.433Z,43.00
2018-10-05T16:04:23.930Z,43.30
2018-10-05T16:06:52.571Z,43.60
2018-10-05T16:09:21.440Z,43.90
2018-10-05T16:11:50.039Z,44.10
2018-10-05T16:14:18.827Z,44.30
2018-10-05T16:16:47.938Z,44.70
2018-10-05T16:19:16.956Z,44.80
2018-10-05T16:21:45.494Z,45.10
2018-10-05T16:24:20.505Z,45.20
2018-10-05T16:26:49.315Z,45.70
2018-10-05T16:29:17.858Z,46.00
2018-10-05T16:31:46.588Z,46.20
2018-10-05T16:34:15.170Z,46.60
2018-10-05T16:36:43.923Z,47.00
2018-10-05T16:39:12.713Z,47.30
2018-10-05T16:41:41.396Z,47.50
2018-10-05T16:44:10.114Z,47.80
2018-10-05T16:46:40.304Z,48.10
2018-10-05T16:49:10.651Z,48.50
2018-10-05T16:51:40.104Z,48.80
2018-10-05T16:54:09.034Z,49.10
2018-10-05T16:56:38.434Z,49.40
2018-10-05T16:59:07.534Z,49.90
2018-10-05T17:01:37.317Z,50.30
2018-10-05T17:04:06.569Z,50.80
2018-10-05T17:06:35.169Z,51.20
2018-10-05T17:09:07.371Z,51.90
2018-10-05T17:11:37.603Z,52.30
2018-10-05T17:14:06.399Z,52.80
2018-10-05T17:16:34.966Z,53.30
2018-10-05T17:19:04.147Z,53.70
2018-10-05T17:21:33.293Z,54.00
2018-10-05T17:24:02.281Z,54.40
2018-10-05T17:26:30.787Z,54.80
2018-10-05T17:28:59.619Z,55.80
2018-10-05T17:31:28.223Z,55.80
2018-10-05T17:33:56.893Z,56.10
2018-10-05T17:36:25.482Z,56.30
2018-10-05T17:38:54.182Z,56.80
2018-10-05T17:41:22.922Z,57.00
2018-10-05T17:43:52.604Z,57.30
2018-10-05T17:46:21.177Z,57.50
2018-10-05T17:48:49.685Z,57.90
2018-10-05T17:51:18.588Z,58.20
2018-10-05T17:53:47.223Z,58.60
2018-10-05T17:56:15.818Z,59.20
2018-10-05T17:58:44.583Z,59.40
2018-10-05T18:01:13.336Z,59.60
2018-10-05T18:03:42.040Z,60.70
2018-10-05T18:06:10.972Z,60.30
2018-10-05T18:08:39.712Z,61.00
2018-10-05T18:11:08.393Z,61.40
2018-10-05T18:13:36.963Z,61.80
2018-10-05T18:16:05.671Z,62.30
2018-10-05T18:18:34.155Z,62.50
2018-10-05T18:21:03.025Z,62.90
2018-10-05T18:23:31.493Z,63.20
2018-10-05T18:26:00.011Z,63.30
2018-10-05T18:28:28.599Z,63.60
2018-10-05T18:30:57.282Z,63.70
2018-10-05T18:33:25.801Z,63.90
2018-10-05T18:35:54.484Z,64.30
2018-10-05T18:38:23.126Z,64.50
2018-10-05T18:40:51.928Z,64.90
2018-10-05T18:43:20.438Z,64.90
2018-10-05T18:45:49.980Z,65.50
2018-10-05T18:48:18.732Z,65.80
2018-10-05T18:50:47.791Z,66.10
2018-10-05T18:53:16.431Z,66.60
2018-10-05T18:55:45.140Z,67.20
2018-10-05T18:58:13.651Z,67.50
2018-10-05T19:00:42.418Z,67.80
2018-10-05T19:03:11.057Z,68.40
2018-10-05T19:05:39.658Z,69.00
2018-10-05T19:08:08.124Z,69.60
2018-10-05T19:10:36.768Z,70.10
2018-10-05T19:13:05.605Z,70.60
2018-10-05T19:15:34.556Z,70.90
2018-10-05T19:18:03.397Z,71.40
2018-10-05T19:20:32.189Z,72.00
2018-10-05T19:23:00.921Z,72.60
2018-10-05T19:25:29.627Z,73.60
2018-10-05T19:27:58.250Z,74.10
2018-10-05T19:30:27.117Z,75.20
2018-10-05T19:32:55.915Z,75.80
2018-10-05T19:35:24.517Z,76.00
2018-10-05T19:37:53.304Z,76.60
2018-10-05T19:40:22.021Z,77.30
2018-10-05T19:42:50.609Z,78.10
2018-10-05T19:45:19.328Z,78.80
2018-10-05T19:47:48.260Z,79.90
2018-10-05T19:50:16.831Z,80.50
2018-10-05T19:52:45.467Z,81.20
2018-10-05T19:55:14.057Z,81.70
2018-10-05T19:57:42.757Z,82.40
2018-10-05T20:00:11.257Z,83.20
2018-10-05T20:02:39.899Z,83.50
2018-10-05T20:05:08.518Z,83.90
2018-10-05T20:07:37.071Z,84.10
2018-10-05T20:10:05.667Z,84.50
2018-10-05T20:12:35.358Z,85.10
2018-10-05T20:15:04.319Z,85.80
2018-10-05T20:17:33.217Z,86.40
2018-10-05T20:20:01.661Z,86.70
2018-10-05T20:22:30.238Z,87.20
2018-10-05T20:24:58.777Z,87.50
2018-10-05T20:27:27.576Z,87.90
2018-10-05T20:29:56.122Z,88.20
2018-10-05T20:32:24.762Z,88.50
2018-10-05T20:34:53.380Z,88.70
2018-10-05T20:37:22.244Z,89.00
2018-10-05T20:39:50.637Z,89.30
2018-10-05T20:42:19.234Z,89.50
2018-10-05T20:44:47.700Z,89.60
2018-10-05T20:47:16.538Z,89.50
2018-10-05T20:49:45.043Z,89.70
2018-10-05T20:52:13.825Z,89.50
2018-10-05T20:54:42.721Z,89.60
2018-10-05T20:57:12.208Z,89.70
2018-10-05T20:59:40.863Z,90.00
2018-10-05T21:02:09.446Z,90.20
2018-10-05T21:04:37.990Z,90.30
2018-10-05T21:07:06.834Z,90.50
2018-10-05T21:09:35.331Z,90.70
2018-10-05T21:12:04.099Z,90.90
2018-10-05T21:14:32.578Z,91.20
2018-10-05T21:17:01.105Z,91.40
2018-10-05T21:19:29.554Z,91.70
2018-10-05T21:21:58.085Z,92.00
2018-10-05T21:24:26.571Z,92.30
2018-10-05T21:26:56.342Z,92.60
2018-10-05T21:29:24.797Z,92.90
2018-10-05T21:31:53.337Z,93.00
2018-10-05T21:34:21.825Z,93.10
2018-10-05T21:36:50.528Z,93.10
2018-10-05T21:39:19.111Z,93.10
2018-10-05T21:41:47.822Z,93.00
2018-10-05T21:44:16.351Z,93.00
2018-10-05T21:46:44.941Z,93.20
2018-10-05T21:49:13.497Z,93.20
2018-10-05T21:51:42.215Z,93.30
2018-10-05T21:54:10.779Z,93.70
2018-10-05T21:56:39.350Z,93.90
2018-10-05T21:59:08.270Z,94.30
2018-10-05T22:01:36.931Z,94.40
2018-10-05T22:04:05.510Z,94.60
2018-10-05T22:06:34.362Z,94.90
2018-10-05T22:09:03.417Z,95.10
2018-10-05T22:11:32.114Z,95.30
2018-10-05T22:14:00.906Z,95.50
2018-10-05T22:16:29.386Z,95.80
2018-10-05T22:18:57.985Z,96.00
2018-10-05T22:21:26.519Z,96.20
2018-10-05T22:23:54.929Z,96.30
2018-10-05T22:26:23.653Z,96.30
2018-10-05T22:28:52.277Z,96.40
2018-10-05T22:31:20.983Z,96.50
2018-10-05T22:33:49.538Z,96.70
2018-10-05T22:36:18.278Z,96.80
2018-10-05T22:38:46.826Z,96.90
2018-10-05T22:41:15.552Z,96.90
2018-10-05T22:43:43.988Z,97.10
2018-10-05T22:46:12.680Z,97.30
2018-10-05T22:48:41.131Z,97.40
2018-10-05T22:51:09.713Z,97.40
2018-10-05T22:53:38.789Z,97.40
2018-10-05T22:56:07.724Z,97.40
2018-10-05T22:58:36.201Z,97.50
2018-10-05T23:01:05.174Z,97.50
2018-10-05T23:03:34.564Z,97.60
2018-10-05T23:06:03.116Z,97.90
2018-10-05T23:08:31.677Z,98.10
2018-10-05T23:11:00.502Z,98.20
2018-10-05T23:13:29.123Z,98.40
2018-10-05T23:15:57.891Z,98.10
2018-10-05T23:18:26.677Z,98.20
2018-10-05T23:20:55.228Z,98.40
2018-10-05T23:23:23.971Z,98.40
2018-10-05T23:25:52.461Z,98.50
2018-10-05T23:28:21.480Z,98.70
2018-10-05T23:30:50.077Z,98.70
2018-10-05T23:33:18.970Z,99.00
2018-10-05T23:35:47.440Z,99.20
2018-10-05T23:38:16.101Z,99.20
2018-10-05T23:40:44.543Z,99.10
2018-10-05T23:43:13.050Z,99.20
2018-10-05T23:45:41.669Z,99.10
2018-10-05T23:48:10.480Z,99.70
2018-10-05T23:50:40.269Z,99.60
2018-10-05T23:53:08.812Z,99.80
2018-10-05T23:55:37.488Z,99.90
2018-10-05T23:58:06.214Z,99.90
